Terminal Aerodrome Forecast
Issued by NWS

Home | Current Version | Previous Version | Text Only | Print | Product List | Glossary On
Versions: 1 2 3 4 5 6 7 8 9 10 11 12 13 14 15 16 17 18
000
FTUS44 KJAN 201120
TAFGTR
TAF
KGTR 201120Z 2012/2112 20004KT P6SM FEW015
     FM201400 21005KT P6SM VCSH SCT035 SCT050
     FM201900 23005KT P6SM VCTS SCT050CB
     FM210000 VRB03KT P6SM SCT100=

USA.gov is the U.S. government's official web portal to all federal, state and local government web resources and services.